Reno, Pennsylvania
Current Conditions -  °F | °C
As of 4:35 AM on Monday 20 Oct 2014 (Local Time) from KFKL Reporting Station
Few Clouds Few Clouds  
Wind Chill:   Ceiling: Unl
Heat Index:   Visibility: 10mi
Dew Point:   Wind: 8mph
Humidity: 75%   Direction: 190°S
Pressure: 30.02"   Gusts: NA
Location:  41.41°N, 79.75°W
Report Text: KFKL 200835Z 19007KT 10SM FEW120 04/00 A3002 RMK AO1
Loading
Personal Weather Stations






























Interactive Weather Map
Tropical Storm Tracking
New forecast layout! Learn more

10-Day Weather Forecast

Advertisements
Track Severe Weather on mobile